sensor_id;sensor_type;location;lat;lon;timestamp;P1;durP1;ratioP1;P2;durP2;ratioP2
85881;SDS011;76395;51.392;21.182;2024-02-14T11:51:50;6.38;;;2.72;;
85881;SDS011;76395;51.392;21.182;2024-02-14T11:52:55;6.35;;;2.45;;
85881;SDS011;76395;51.392;21.182;2024-02-14T11:53:57;5.88;;;2.38;;
85881;SDS011;76395;51.392;21.182;2024-02-14T11:55:05;7.25;;;3.28;;
85881;SDS011;76395;51.392;21.182;2024-02-14T11:56:07;5.30;;;3.33;;
85881;SDS011;76395;51.392;21.182;2024-02-14T11:57:08;6.22;;;2.60;;
85881;SDS011;76395;51.392;21.182;2024-02-14T11:58:10;4.55;;;2.80;;
85881;SDS011;76395;51.392;21.182;2024-02-14T11:59:11;9.27;;;3.90;;
85881;SDS011;76395;51.392;21.182;2024-02-14T12:00:13;9.32;;;4.13;;
85881;SDS011;76395;51.392;21.182;2024-02-14T12:01:16;16.65;;;5.57;;
85881;SDS011;76395;51.392;21.182;2024-02-14T12:02:28;14.32;;;4.50;;
85881;SDS011;76395;51.392;21.182;2024-02-14T12:03:29;6.50;;;3.55;;
85881;SDS011;76395;51.392;21.182;2024-02-14T12:04:42;5.25;;;3.10;;
85881;SDS011;76395;51.392;21.182;2024-02-14T12:05:55;6.05;;;3.10;;
85881;SDS011;76395;51.392;21.182;2024-02-14T12:07:34;5.05;;;2.65;;
85881;SDS011;76395;51.392;21.182;2024-02-14T12:08:41;7.97;;;3.35;;
85881;SDS011;76395;51.392;21.182;2024-02-14T12:09:56;8.52;;;3.65;;
85881;SDS011;76395;51.392;21.182;2024-02-14T12:11:15;6.53;;;3.65;;
85881;SDS011;76395;51.392;21.182;2024-02-14T12:12:48;6.72;;;3.63;;
85881;SDS011;76395;51.392;21.182;2024-02-14T12:14:02;7.88;;;4.43;;
85881;SDS011;76395;51.392;21.182;2024-02-14T12:15:08;6.50;;;4.22;;
85881;SDS011;76395;51.392;21.182;2024-02-14T12:17:56;7.80;;;3.30;;
85881;SDS011;76395;51.392;21.182;2024-02-14T12:19:24;8.45;;;3.22;;
85881;SDS011;76395;51.392;21.182;2024-02-14T12:20:27;8.60;;;3.80;;
85881;SDS011;76395;51.392;21.182;2024-02-14T12:22:01;4.82;;;3.13;;
85881;SDS011;76395;51.392;21.182;2024-02-14T12:23:18;7.07;;;3.47;;
85881;SDS011;76395;51.392;21.182;2024-02-14T12:24:34;7.88;;;3.25;;
85881;SDS011;76395;51.392;21.182;2024-02-14T12:25:48;8.60;;;3.55;;
85881;SDS011;76395;51.392;21.182;2024-02-14T12:27:25;4.53;;;3.03;;
85881;SDS011;76395;51.392;21.182;2024-02-14T12:30:20;5.72;;;2.95;;
85881;SDS011;76395;51.392;21.182;2024-02-14T12:31:28;4.50;;;2.47;;
85881;SDS011;76395;51.392;21.182;2024-02-14T12:32:39;6.68;;;2.80;;
85881;SDS011;76395;51.392;21.182;2024-02-14T12:34:23;8.38;;;2.78;;
85881;SDS011;76395;51.392;21.182;2024-02-14T12:35:37;4.47;;;2.75;;
85881;SDS011;76395;51.392;21.182;2024-02-14T12:37:08;6.50;;;3.28;;
85881;SDS011;76395;51.392;21.182;2024-02-14T12:38:34;6.03;;;2.85;;
85881;SDS011;76395;51.392;21.182;2024-02-14T12:39:35;6.68;;;3.22;;
85881;SDS011;76395;51.392;21.182;2024-02-14T12:40:38;6.38;;;2.78;;
85881;SDS011;76395;51.392;21.182;2024-02-14T12:41:42;4.13;;;3.00;;
85881;SDS011;76395;51.392;21.182;2024-02-14T12:42:47;8.00;;;3.00;;
85881;SDS011;76395;51.392;21.182;2024-02-14T12:43:51;3.83;;;3.10;;
85881;SDS011;76395;51.392;21.182;2024-02-14T12:44:55;6.38;;;3.55;;
85881;SDS011;76395;51.392;21.182;2024-02-14T12:45:56;7.10;;;3.33;;
85881;SDS011;76395;51.392;21.182;2024-02-14T12:46:58;4.75;;;3.17;;
85881;SDS011;76395;51.392;21.182;2024-02-14T12:48:00;8.70;;;2.90;;
85881;SDS011;76395;51.392;21.182;2024-02-14T12:49:02;5.80;;;3.08;;
85881;SDS011;76395;51.392;21.182;2024-02-14T12:50:03;6.72;;;2.88;;
85881;SDS011;76395;51.392;21.182;2024-02-14T12:51:12;5.25;;;2.92;;
85881;SDS011;76395;51.392;21.182;2024-02-14T12:52:13;7.30;;;3.90;;
85881;SDS011;76395;51.392;21.182;2024-02-14T12:53:14;8.00;;;3.80;;
85881;SDS011;76395;51.392;21.182;2024-02-14T12:54:16;5.13;;;2.70;;
85881;SDS011;76395;51.392;21.182;2024-02-14T12:55:19;6.85;;;3.15;;
85881;SDS011;76395;51.392;21.182;2024-02-14T12:56:20;5.15;;;2.90;;
85881;SDS011;76395;51.392;21.182;2024-02-14T12:57:21;8.73;;;2.70;;
85881;SDS011;76395;51.392;21.182;2024-02-14T12:58:22;12.82;;;5.25;;
85881;SDS011;76395;51.392;21.182;2024-02-14T12:59:30;9.43;;;5.18;;
85881;SDS011;76395;51.392;21.182;2024-02-14T13:00:32;7.38;;;4.40;;
85881;SDS011;76395;51.392;21.182;2024-02-14T13:01:33;7.90;;;3.95;;
85881;SDS011;76395;51.392;21.182;2024-02-14T13:02:36;12.85;;;5.00;;
85881;SDS011;76395;51.392;21.182;2024-02-14T13:03:39;7.53;;;3.55;;
85881;SDS011;76395;51.392;21.182;2024-02-14T13:04:40;5.32;;;3.55;;
85881;SDS011;76395;51.392;21.182;2024-02-14T13:05:41;9.95;;;4.57;;
85881;SDS011;76395;51.392;21.182;2024-02-14T13:06:42;7.15;;;3.22;;
85881;SDS011;76395;51.392;21.182;2024-02-14T13:07:44;6.13;;;3.33;;
85881;SDS011;76395;51.392;21.182;2024-02-14T13:08:47;5.30;;;2.67;;
85881;SDS011;76395;51.392;21.182;2024-02-14T13:09:48;6.43;;;2.67;;
85881;SDS011;76395;51.392;21.182;2024-02-14T13:10:49;3.95;;;2.50;;
85881;SDS011;76395;51.392;21.182;2024-02-14T13:11:50;5.80;;;2.40;;
85881;SDS011;76395;51.392;21.182;2024-02-14T13:12:51;5.82;;;2.80;;
85881;SDS011;76395;51.392;21.182;2024-02-14T13:13:55;4.13;;;2.55;;
85881;SDS011;76395;51.392;21.182;2024-02-14T13:14:56;5.43;;;3.40;;
85881;SDS011;76395;51.392;21.182;2024-02-14T13:15:58;5.95;;;3.28;;
85881;SDS011;76395;51.392;21.182;2024-02-14T13:16:58;8.35;;;4.93;;
85881;SDS011;76395;51.392;21.182;2024-02-14T13:18:00;6.63;;;4.68;;
85881;SDS011;76395;51.392;21.182;2024-02-14T13:19:01;10.55;;;4.95;;
85881;SDS011;76395;51.392;21.182;2024-02-14T13:20:03;6.85;;;3.97;;
85881;SDS011;76395;51.392;21.182;2024-02-14T13:21:04;8.35;;;4.35;;
85881;SDS011;76395;51.392;21.182;2024-02-14T13:22:08;6.85;;;3.63;;
85881;SDS011;76395;51.392;21.182;2024-02-14T13:23:10;3.65;;;2.20;;
85881;SDS011;76395;51.392;21.182;2024-02-14T13:24:14;6.65;;;2.65;;
85881;SDS011;76395;51.392;21.182;2024-02-14T13:25:15;8.15;;;3.00;;
85881;SDS011;76395;51.392;21.182;2024-02-14T13:26:17;5.35;;;2.60;;
85881;SDS011;76395;51.392;21.182;2024-02-14T13:27:18;4.32;;;2.58;;
85881;SDS011;76395;51.392;21.182;2024-02-14T13:28:21;5.30;;;3.30;;
85881;SDS011;76395;51.392;21.182;2024-02-14T13:29:22;10.05;;;3.90;;
85881;SDS011;76395;51.392;21.182;2024-02-14T13:30:24;10.88;;;4.35;;
85881;SDS011;76395;51.392;21.182;2024-02-14T13:31:25;10.05;;;4.63;;
85881;SDS011;76395;51.392;21.182;2024-02-14T13:32:27;15.02;;;5.20;;
85881;SDS011;76395;51.392;21.182;2024-02-14T13:33:28;7.60;;;3.75;;
85881;SDS011;76395;51.392;21.182;2024-02-14T13:35:31;10.15;;;4.18;;
85881;SDS011;76395;51.392;21.182;2024-02-14T13:36:38;5.32;;;2.80;;
85881;SDS011;76395;51.392;21.182;2024-02-14T13:37:39;7.22;;;3.05;;
85881;SDS011;76395;51.392;21.182;2024-02-14T13:38:41;8.65;;;3.78;;
85881;SDS011;76395;51.392;21.182;2024-02-14T13:39:45;10.38;;;4.40;;
85881;SDS011;76395;51.392;21.182;2024-02-14T13:40:46;8.88;;;4.68;;
85881;SDS011;76395;51.392;21.182;2024-02-14T13:41:47;7.35;;;3.90;;
85881;SDS011;76395;51.392;21.182;2024-02-14T13:42:48;6.85;;;3.28;;
85881;SDS011;76395;51.392;21.182;2024-02-14T13:43:49;7.50;;;3.55;;
85881;SDS011;76395;51.392;21.182;2024-02-14T13:44:50;4.82;;;2.88;;
85881;SDS011;76395;51.392;21.182;2024-02-14T13:45:55;4.93;;;2.72;;
85881;SDS011;76395;51.392;21.182;2024-02-14T13:46:56;8.70;;;3.28;;
85881;SDS011;76395;51.392;21.182;2024-02-14T13:48:03;7.60;;;2.70;;
85881;SDS011;76395;51.392;21.182;2024-02-14T13:49:08;7.90;;;2.80;;
85881;SDS011;76395;51.392;21.182;2024-02-14T13:50:10;6.25;;;2.72;;
85881;SDS011;76395;51.392;21.182;2024-02-14T13:51:12;6.30;;;3.33;;
85881;SDS011;76395;51.392;21.182;2024-02-14T13:52:13;5.18;;;2.45;;
85881;SDS011;76395;51.392;21.182;2024-02-14T13:53:17;4.22;;;2.15;;
85881;SDS011;76395;51.392;21.182;2024-02-14T13:54:18;6.30;;;2.83;;
85881;SDS011;76395;51.392;21.182;2024-02-14T13:55:20;5.57;;;2.72;;
85881;SDS011;76395;51.392;21.182;2024-02-14T13:56:21;6.22;;;2.72;;
85881;SDS011;76395;51.392;21.182;2024-02-14T13:57:23;6.38;;;2.70;;
85881;SDS011;76395;51.392;21.182;2024-02-14T13:58:24;5.65;;;2.92;;
85881;SDS011;76395;51.392;21.182;2024-02-14T13:59:28;7.68;;;4.03;;
85881;SDS011;76395;51.392;21.182;2024-02-14T14:00:29;7.90;;;3.80;;
85881;SDS011;76395;51.392;21.182;2024-02-14T14:01:30;7.65;;;3.53;;
85881;SDS011;76395;51.392;21.182;2024-02-14T14:02:32;8.18;;;4.43;;
85881;SDS011;76395;51.392;21.182;2024-02-14T14:03:33;8.02;;;3.90;;
85881;SDS011;76395;51.392;21.182;2024-02-14T14:04:37;5.35;;;3.10;;
85881;SDS011;76395;51.392;21.182;2024-02-14T14:05:38;5.03;;;3.30;;
85881;SDS011;76395;51.392;21.182;2024-02-14T14:06:41;6.90;;;2.97;;
85881;SDS011;76395;51.392;21.182;2024-02-14T14:07:45;5.38;;;3.00;;
85881;SDS011;76395;51.392;21.182;2024-02-14T14:08:46;5.82;;;3.17;;
85881;SDS011;76395;51.392;21.182;2024-02-14T14:09:48;8.25;;;3.30;;
85881;SDS011;76395;51.392;21.182;2024-02-14T14:10:49;7.60;;;3.28;;
85881;SDS011;76395;51.392;21.182;2024-02-14T14:11:50;6.00;;;3.50;;
85881;SDS011;76395;51.392;21.182;2024-02-14T14:12:53;9.18;;;4.30;;
85881;SDS011;76395;51.392;21.182;2024-02-14T14:13:55;8.57;;;4.43;;
85881;SDS011;76395;51.392;21.182;2024-02-14T14:14:56;10.38;;;4.65;;
85881;SDS011;76395;51.392;21.182;2024-02-14T14:15:59;8.23;;;3.75;;
85881;SDS011;76395;51.392;21.182;2024-02-14T14:17:00;10.25;;;4.10;;
85881;SDS011;76395;51.392;21.182;2024-02-14T14:18:04;12.30;;;4.00;;
85881;SDS011;76395;51.392;21.182;2024-02-14T14:19:05;9.15;;;4.40;;
85881;SDS011;76395;51.392;21.182;2024-02-14T14:20:06;9.10;;;3.95;;
85881;SDS011;76395;51.392;21.182;2024-02-14T14:21:08;7.40;;;3.90;;
85881;SDS011;76395;51.392;21.182;2024-02-14T14:22:12;8.38;;;4.25;;
85881;SDS011;76395;51.392;21.182;2024-02-14T14:23:13;8.15;;;4.40;;
85881;SDS011;76395;51.392;21.182;2024-02-14T14:24:16;10.82;;;5.10;;
85881;SDS011;76395;51.392;21.182;2024-02-14T14:25:19;8.98;;;4.22;;
85881;SDS011;76395;51.392;21.182;2024-02-14T14:26:20;7.70;;;3.72;;
85881;SDS011;76395;51.392;21.182;2024-02-14T14:27:22;7.82;;;4.43;;
85881;SDS011;76395;51.392;21.182;2024-02-14T14:28:24;7.20;;;4.53;;
85881;SDS011;76395;51.392;21.182;2024-02-14T14:29:25;10.65;;;4.05;;
85881;SDS011;76395;51.392;21.182;2024-02-14T14:30:26;11.88;;;4.82;;
85881;SDS011;76395;51.392;21.182;2024-02-14T14:31:29;9.57;;;3.38;;
85881;SDS011;76395;51.392;21.182;2024-02-14T14:32:37;9.25;;;4.47;;
85881;SDS011;76395;51.392;21.182;2024-02-14T14:34:45;14.02;;;6.43;;
85881;SDS011;76395;51.392;21.182;2024-02-14T14:35:47;14.02;;;6.88;;
85881;SDS011;76395;51.392;21.182;2024-02-14T14:36:55;64.78;;;21.08;;
85881;SDS011;76395;51.392;21.182;2024-02-14T14:37:56;64.38;;;24.30;;
85881;SDS011;76395;51.392;21.182;2024-02-14T14:39:00;55.83;;;21.58;;
85881;SDS011;76395;51.392;21.182;2024-02-14T14:40:01;21.63;;;9.82;;
85881;SDS011;76395;51.392;21.182;2024-02-14T14:41:02;24.30;;;10.50;;
85881;SDS011;76395;51.392;21.182;2024-02-14T14:42:05;40.53;;;17.10;;
85881;SDS011;76395;51.392;21.182;2024-02-14T14:43:08;40.25;;;16.40;;
85881;SDS011;76395;51.392;21.182;2024-02-14T14:44:15;51.92;;;22.05;;
85881;SDS011;76395;51.392;21.182;2024-02-14T14:45:16;35.35;;;15.32;;
85881;SDS011;76395;51.392;21.182;2024-02-14T14:46:17;31.40;;;14.35;;
85881;SDS011;76395;51.392;21.182;2024-02-14T14:47:19;18.05;;;8.73;;
85881;SDS011;76395;51.392;21.182;2024-02-14T14:48:19;28.13;;;11.93;;
85881;SDS011;76395;51.392;21.182;2024-02-14T14:49:22;19.83;;;9.05;;
85881;SDS011;76395;51.392;21.182;2024-02-14T14:50:23;19.35;;;9.48;;
85881;SDS011;76395;51.392;21.182;2024-02-14T14:51:26;18.08;;;7.72;;
85881;SDS011;76395;51.392;21.182;2024-02-14T14:52:27;20.58;;;9.43;;
85881;SDS011;76395;51.392;21.182;2024-02-14T14:53:30;19.80;;;9.10;;
85881;SDS011;76395;51.392;21.182;2024-02-14T14:54:32;18.17;;;9.27;;
85881;SDS011;76395;51.392;21.182;2024-02-14T14:55:51;16.80;;;9.45;;
85881;SDS011;76395;51.392;21.182;2024-02-14T14:57:01;17.75;;;7.05;;
85881;SDS011;76395;51.392;21.182;2024-02-14T14:58:12;27.35;;;9.30;;
85881;SDS011;76395;51.392;21.182;2024-02-14T14:59:14;14.20;;;8.02;;
85881;SDS011;76395;51.392;21.182;2024-02-14T15:00:15;27.75;;;13.55;;
85881;SDS011;76395;51.392;21.182;2024-02-14T15:01:16;45.38;;;21.27;;
85881;SDS011;76395;51.392;21.182;2024-02-14T15:02:20;48.00;;;23.33;;
85881;SDS011;76395;51.392;21.182;2024-02-14T15:03:24;75.25;;;32.80;;
85881;SDS011;76395;51.392;21.182;2024-02-14T15:04:26;62.13;;;25.83;;
85881;SDS011;76395;51.392;21.182;2024-02-14T15:05:27;49.00;;;21.33;;
85881;SDS011;76395;51.392;21.182;2024-02-14T15:06:28;34.72;;;16.20;;
85881;SDS011;76395;51.392;21.182;2024-02-14T15:07:32;31.50;;;13.60;;
85881;SDS011;76395;51.392;21.182;2024-02-14T15:08:36;27.33;;;12.25;;
85881;SDS011;76395;51.392;21.182;2024-02-14T15:09:37;17.90;;;8.35;;
85881;SDS011;76395;51.392;21.182;2024-02-14T15:10:39;17.83;;;9.02;;
85881;SDS011;76395;51.392;21.182;2024-02-14T15:11:43;21.92;;;10.93;;
85881;SDS011;76395;51.392;21.182;2024-02-14T15:12:45;16.85;;;8.02;;
85881;SDS011;76395;51.392;21.182;2024-02-14T15:13:49;20.90;;;8.90;;
85881;SDS011;76395;51.392;21.182;2024-02-14T15:14:55;15.27;;;7.10;;
85881;SDS011;76395;51.392;21.182;2024-02-14T15:15:58;19.77;;;7.78;;
85881;SDS011;76395;51.392;21.182;2024-02-14T15:17:01;13.88;;;6.70;;
85881;SDS011;76395;51.392;21.182;2024-02-14T15:18:02;9.98;;;5.72;;
85881;SDS011;76395;51.392;21.182;2024-02-14T15:19:04;12.60;;;6.00;;
85881;SDS011;76395;51.392;21.182;2024-02-14T15:20:10;14.95;;;5.53;;
85881;SDS011;76395;51.392;21.182;2024-02-14T15:21:13;9.10;;;5.18;;
85881;SDS011;76395;51.392;21.182;2024-02-14T15:22:17;10.88;;;5.25;;
85881;SDS011;76395;51.392;21.182;2024-02-14T15:23:18;12.60;;;6.15;;
85881;SDS011;76395;51.392;21.182;2024-02-14T15:24:22;11.70;;;5.68;;
85881;SDS011;76395;51.392;21.182;2024-02-14T15:25:23;15.93;;;5.85;;
85881;SDS011;76395;51.392;21.182;2024-02-14T15:26:25;13.02;;;7.10;;
85881;SDS011;76395;51.392;21.182;2024-02-14T15:27:29;15.32;;;7.18;;
85881;SDS011;76395;51.392;21.182;2024-02-14T15:28:32;15.10;;;7.25;;
85881;SDS011;76395;51.392;21.182;2024-02-14T15:29:40;18.48;;;7.05;;
85881;SDS011;76395;51.392;21.182;2024-02-14T15:31:01;16.42;;;7.25;;
85881;SDS011;76395;51.392;21.182;2024-02-14T15:32:21;15.57;;;8.20;;
85881;SDS011;76395;51.392;21.182;2024-02-14T15:33:41;25.45;;;11.30;;
85881;SDS011;76395;51.392;21.182;2024-02-14T15:34:44;20.25;;;11.27;;
85881;SDS011;76395;51.392;21.182;2024-02-14T15:35:45;22.48;;;11.23;;
85881;SDS011;76395;51.392;21.182;2024-02-14T15:36:48;26.10;;;12.43;;
85881;SDS011;76395;51.392;21.182;2024-02-14T15:37:50;30.63;;;16.63;;
85881;SDS011;76395;51.392;21.182;2024-02-14T15:38:53;28.17;;;14.55;;
85881;SDS011;76395;51.392;21.182;2024-02-14T15:39:59;34.20;;;18.48;;
85881;SDS011;76395;51.392;21.182;2024-02-14T15:41:00;40.05;;;18.45;;
85881;SDS011;76395;51.392;21.182;2024-02-14T15:42:05;42.60;;;21.77;;
85881;SDS011;76395;51.392;21.182;2024-02-14T15:43:09;40.13;;;19.40;;
85881;SDS011;76395;51.392;21.182;2024-02-14T15:44:15;43.17;;;22.83;;
85881;SDS011;76395;51.392;21.182;2024-02-14T15:45:20;44.80;;;21.58;;
85881;SDS011;76395;51.392;21.182;2024-02-14T15:46:21;42.83;;;21.98;;
85881;SDS011;76395;51.392;21.182;2024-02-14T15:47:28;42.92;;;21.73;;
85881;SDS011;76395;51.392;21.182;2024-02-14T15:48:30;40.88;;;21.75;;
85881;SDS011;76395;51.392;21.182;2024-02-14T15:49:33;47.13;;;23.13;;
85881;SDS011;76395;51.392;21.182;2024-02-14T15:50:35;42.67;;;20.83;;
85881;SDS011;76395;51.392;21.182;2024-02-14T15:51:37;41.60;;;19.35;;
85881;SDS011;76395;51.392;21.182;2024-02-14T15:52:39;39.10;;;19.42;;
85881;SDS011;76395;51.392;21.182;2024-02-14T15:53:40;38.05;;;19.15;;
85881;SDS011;76395;51.392;21.182;2024-02-14T15:54:41;36.95;;;18.42;;
85881;SDS011;76395;51.392;21.182;2024-02-14T15:55:45;35.38;;;19.40;;
85881;SDS011;76395;51.392;21.182;2024-02-14T15:56:46;32.55;;;17.38;;
85881;SDS011;76395;51.392;21.182;2024-02-14T15:57:47;36.22;;;17.75;;
85881;SDS011;76395;51.392;21.182;2024-02-14T15:58:48;35.50;;;17.20;;
85881;SDS011;76395;51.392;21.182;2024-02-14T15:59:49;33.90;;;16.83;;
85881;SDS011;76395;51.392;21.182;2024-02-14T16:00:51;33.55;;;16.15;;
85881;SDS011;76395;51.392;21.182;2024-02-14T16:01:54;33.75;;;17.10;;
85881;SDS011;76395;51.392;21.182;2024-02-14T16:02:56;37.65;;;18.52;;
85881;SDS011;76395;51.392;21.182;2024-02-14T16:03:57;30.75;;;17.23;;
85881;SDS011;76395;51.392;21.182;2024-02-14T16:04:59;36.88;;;17.52;;
85881;SDS011;76395;51.392;21.182;2024-02-14T16:06:00;31.05;;;16.92;;
85881;SDS011;76395;51.392;21.182;2024-02-14T16:07:01;33.90;;;17.25;;
85881;SDS011;76395;51.392;21.182;2024-02-14T16:08:03;36.08;;;17.95;;
85881;SDS011;76395;51.392;21.182;2024-02-14T16:09:07;36.10;;;17.35;;
85881;SDS011;76395;51.392;21.182;2024-02-14T16:10:09;32.78;;;17.40;;
85881;SDS011;76395;51.392;21.182;2024-02-14T16:11:17;34.85;;;17.02;;
85881;SDS011;76395;51.392;21.182;2024-02-14T16:12:18;31.88;;;16.95;;
85881;SDS011;76395;51.392;21.182;2024-02-14T16:13:20;34.20;;;18.13;;
85881;SDS011;76395;51.392;21.182;2024-02-14T16:14:22;36.15;;;19.65;;
85881;SDS011;76395;51.392;21.182;2024-02-14T16:15:24;34.30;;;18.50;;
85881;SDS011;76395;51.392;21.182;2024-02-14T16:16:26;34.83;;;16.85;;
85881;SDS011;76395;51.392;21.182;2024-02-14T16:17:28;33.05;;;17.23;;
85881;SDS011;76395;51.392;21.182;2024-02-14T16:18:29;43.63;;;18.30;;
85881;SDS011;76395;51.392;21.182;2024-02-14T16:19:30;37.05;;;19.75;;
85881;SDS011;76395;51.392;21.182;2024-02-14T16:20:32;38.58;;;19.15;;
85881;SDS011;76395;51.392;21.182;2024-02-14T16:21:34;39.25;;;18.55;;
85881;SDS011;76395;51.392;21.182;2024-02-14T16:22:36;41.35;;;20.77;;
85881;SDS011;76395;51.392;21.182;2024-02-14T16:23:39;41.45;;;18.88;;
85881;SDS011;76395;51.392;21.182;2024-02-14T16:24:41;38.47;;;19.38;;
85881;SDS011;76395;51.392;21.182;2024-02-14T16:25:43;32.83;;;16.33;;
85881;SDS011;76395;51.392;21.182;2024-02-14T16:26:45;31.50;;;16.95;;
85881;SDS011;76395;51.392;21.182;2024-02-14T16:27:47;37.65;;;16.92;;
85881;SDS011;76395;51.392;21.182;2024-02-14T16:28:48;29.38;;;15.82;;
85881;SDS011;76395;51.392;21.182;2024-02-14T16:29:51;31.23;;;15.55;;
85881;SDS011;76395;51.392;21.182;2024-02-14T16:30:52;28.67;;;15.63;;
85881;SDS011;76395;51.392;21.182;2024-02-14T16:31:55;28.63;;;16.02;;
85881;SDS011;76395;51.392;21.182;2024-02-14T16:32:56;32.92;;;16.65;;
85881;SDS011;76395;51.392;21.182;2024-02-14T16:33:58;32.42;;;15.90;;
85881;SDS011;76395;51.392;21.182;2024-02-14T16:35:00;30.35;;;15.45;;
85881;SDS011;76395;51.392;21.182;2024-02-14T16:36:02;29.85;;;18.38;;
85881;SDS011;76395;51.392;21.182;2024-02-14T16:37:03;34.83;;;19.30;;
85881;SDS011;76395;51.392;21.182;2024-02-14T16:38:04;33.33;;;19.15;;
85881;SDS011;76395;51.392;21.182;2024-02-14T16:39:07;37.78;;;20.17;;
85881;SDS011;76395;51.392;21.182;2024-02-14T16:40:09;35.50;;;19.92;;
85881;SDS011;76395;51.392;21.182;2024-02-14T16:41:11;36.17;;;21.15;;
85881;SDS011;76395;51.392;21.182;2024-02-14T16:42:12;33.97;;;19.90;;
85881;SDS011;76395;51.392;21.182;2024-02-14T16:43:13;37.05;;;20.73;;
85881;SDS011;76395;51.392;21.182;2024-02-14T16:44:14;38.90;;;21.20;;
85881;SDS011;76395;51.392;21.182;2024-02-14T16:45:17;35.15;;;21.05;;
85881;SDS011;76395;51.392;21.182;2024-02-14T16:46:17;37.25;;;19.08;;
85881;SDS011;76395;51.392;21.182;2024-02-14T16:47:18;32.70;;;18.95;;
85881;SDS011;76395;51.392;21.182;2024-02-14T16:48:21;34.17;;;18.95;;
85881;SDS011;76395;51.392;21.182;2024-02-14T16:49:25;30.63;;;17.55;;
85881;SDS011;76395;51.392;21.182;2024-02-14T16:50:26;35.88;;;17.90;;
85881;SDS011;76395;51.392;21.182;2024-02-14T16:52:34;29.13;;;15.50;;
85881;SDS011;76395;51.392;21.182;2024-02-14T16:53:36;29.70;;;16.00;;
85881;SDS011;76395;51.392;21.182;2024-02-14T16:54:38;32.17;;;16.10;;
85881;SDS011;76395;51.392;21.182;2024-02-14T16:55:38;35.88;;;17.40;;
85881;SDS011;76395;51.392;21.182;2024-02-14T16:56:40;27.33;;;15.27;;
85881;SDS011;76395;51.392;21.182;2024-02-14T16:57:41;29.85;;;15.48;;
85881;SDS011;76395;51.392;21.182;2024-02-14T16:58:42;31.33;;;17.40;;
85881;SDS011;76395;51.392;21.182;2024-02-14T16:59:43;35.47;;;17.08;;
85881;SDS011;76395;51.392;21.182;2024-02-14T17:00:45;34.95;;;17.13;;
85881;SDS011;76395;51.392;21.182;2024-02-14T17:01:47;35.60;;;16.80;;
85881;SDS011;76395;51.392;21.182;2024-02-14T17:02:48;40.03;;;17.13;;
85881;SDS011;76395;51.392;21.182;2024-02-14T17:03:49;35.95;;;16.02;;
85881;SDS011;76395;51.392;21.182;2024-02-14T17:04:51;34.58;;;16.77;;
85881;SDS011;76395;51.392;21.182;2024-02-14T17:05:53;34.85;;;16.60;;
85881;SDS011;76395;51.392;21.182;2024-02-14T17:06:56;31.90;;;15.57;;
85881;SDS011;76395;51.392;21.182;2024-02-14T17:07:58;40.55;;;18.08;;
85881;SDS011;76395;51.392;21.182;2024-02-14T17:09:00;34.83;;;16.08;;
85881;SDS011;76395;51.392;21.182;2024-02-14T17:10:03;33.42;;;15.93;;
85881;SDS011;76395;51.392;21.182;2024-02-14T17:11:05;37.22;;;17.42;;
85881;SDS011;76395;51.392;21.182;2024-02-14T17:12:15;34.10;;;14.90;;
85881;SDS011;76395;51.392;21.182;2024-02-14T17:13:20;31.33;;;14.98;;
85881;SDS011;76395;51.392;21.182;2024-02-14T17:14:22;30.85;;;15.57;;
85881;SDS011;76395;51.392;21.182;2024-02-14T17:15:26;32.97;;;14.63;;
85881;SDS011;76395;51.392;21.182;2024-02-14T17:16:27;33.90;;;14.32;;
85881;SDS011;76395;51.392;21.182;2024-02-14T17:17:31;34.90;;;14.23;;
85881;SDS011;76395;51.392;21.182;2024-02-14T17:18:32;32.28;;;15.68;;
85881;SDS011;76395;51.392;21.182;2024-02-14T17:19:33;37.00;;;14.75;;
85881;SDS011;76395;51.392;21.182;2024-02-14T17:20:35;33.22;;;15.85;;
85881;SDS011;76395;51.392;21.182;2024-02-14T17:21:38;31.13;;;15.60;;
85881;SDS011;76395;51.392;21.182;2024-02-14T17:22:39;33.85;;;16.05;;
85881;SDS011;76395;51.392;21.182;2024-02-14T17:23:41;40.17;;;17.15;;
85881;SDS011;76395;51.392;21.182;2024-02-14T17:24:42;41.42;;;15.98;;
85881;SDS011;76395;51.392;21.182;2024-02-14T17:25:45;30.52;;;15.35;;
85881;SDS011;76395;51.392;21.182;2024-02-14T17:26:51;34.53;;;16.95;;
85881;SDS011;76395;51.392;21.182;2024-02-14T17:27:54;32.05;;;15.48;;
85881;SDS011;76395;51.392;21.182;2024-02-14T17:28:57;32.38;;;17.33;;
85881;SDS011;76395;51.392;21.182;2024-02-14T17:29:59;33.58;;;17.02;;
85881;SDS011;76395;51.392;21.182;2024-02-14T17:31:00;32.75;;;15.75;;
85881;SDS011;76395;51.392;21.182;2024-02-14T17:32:01;35.70;;;16.42;;
85881;SDS011;76395;51.392;21.182;2024-02-14T17:33:03;30.20;;;16.65;;
85881;SDS011;76395;51.392;21.182;2024-02-14T17:34:06;30.08;;;15.82;;
85881;SDS011;76395;51.392;21.182;2024-02-14T17:35:07;31.10;;;16.58;;
85881;SDS011;76395;51.392;21.182;2024-02-14T17:36:08;31.45;;;15.18;;
85881;SDS011;76395;51.392;21.182;2024-02-14T17:37:09;36.08;;;17.35;;
85881;SDS011;76395;51.392;21.182;2024-02-14T17:38:10;31.15;;;15.18;;
85881;SDS011;76395;51.392;21.182;2024-02-14T17:39:11;34.42;;;14.68;;
85881;SDS011;76395;51.392;21.182;2024-02-14T17:40:13;37.55;;;15.77;;
85881;SDS011;76395;51.392;21.182;2024-02-14T17:41:15;36.08;;;16.95;;
85881;SDS011;76395;51.392;21.182;2024-02-14T17:42:16;26.65;;;14.52;;
85881;SDS011;76395;51.392;21.182;2024-02-14T17:43:18;29.20;;;14.57;;
85881;SDS011;76395;51.392;21.182;2024-02-14T17:44:20;29.85;;;16.38;;
85881;SDS011;76395;51.392;21.182;2024-02-14T17:45:21;30.08;;;16.42;;
85881;SDS011;76395;51.392;21.182;2024-02-14T17:46:22;27.30;;;15.32;;
85881;SDS011;76395;51.392;21.182;2024-02-14T17:47:26;29.80;;;14.70;;
85881;SDS011;76395;51.392;21.182;2024-02-14T17:48:31;34.38;;;15.93;;
85881;SDS011;76395;51.392;21.182;2024-02-14T17:49:33;30.08;;;14.23;;
85881;SDS011;76395;51.392;21.182;2024-02-14T17:50:34;27.42;;;15.23;;
85881;SDS011;76395;51.392;21.182;2024-02-14T17:51:35;24.80;;;14.20;;
85881;SDS011;76395;51.392;21.182;2024-02-14T17:52:37;32.45;;;14.63;;
85881;SDS011;76395;51.392;21.182;2024-02-14T17:53:39;27.00;;;14.48;;
85881;SDS011;76395;51.392;21.182;2024-02-14T17:54:42;30.75;;;14.32;;
85881;SDS011;76395;51.392;21.182;2024-02-14T17:55:45;32.10;;;15.90;;
85881;SDS011;76395;51.392;21.182;2024-02-14T17:56:49;35.00;;;16.42;;
85881;SDS011;76395;51.392;21.182;2024-02-14T17:57:50;31.75;;;14.82;;
85881;SDS011;76395;51.392;21.182;2024-02-14T17:58:52;30.17;;;15.43;;
85881;SDS011;76395;51.392;21.182;2024-02-14T17:59:54;31.98;;;17.67;;
85881;SDS011;76395;51.392;21.182;2024-02-14T18:00:55;39.80;;;17.70;;
85881;SDS011;76395;51.392;21.182;2024-02-14T18:01:56;36.53;;;16.45;;
85881;SDS011;76395;51.392;21.182;2024-02-14T18:02:57;38.78;;;17.35;;
85881;SDS011;76395;51.392;21.182;2024-02-14T18:03:59;35.10;;;17.83;;
85881;SDS011;76395;51.392;21.182;2024-02-14T18:05:00;40.13;;;19.08;;
85881;SDS011;76395;51.392;21.182;2024-02-14T18:06:00;39.08;;;16.77;;
85881;SDS011;76395;51.392;21.182;2024-02-14T18:07:01;37.95;;;18.58;;
85881;SDS011;76395;51.392;21.182;2024-02-14T18:08:03;34.70;;;18.08;;
85881;SDS011;76395;51.392;21.182;2024-02-14T18:09:05;41.55;;;19.08;;
85881;SDS011;76395;51.392;21.182;2024-02-14T18:10:07;39.20;;;20.52;;